LGTS/SKG METAR and TAF weather

Enter ICAO airport designator
Station Type Date Time Source
LGTS METAR 2020/09/20 00:50 UTC NOAA

LGTS 200050Z 14006KT CAVOK 21/11 Q1018 NOSIG


Station Type Date Time Source
LGTS Decoded METAR 2020/09/20 00:50 UTC NOAA

Thessaloniki Airport , Greece (LGTS) 40-31N 022-58E 4M
Sep 19, 2020 - 08:50 PM EDT / 2020.09.20 0050 UTC
Wind: from the SE (140 degrees) at 7 MPH (6 KT):0
Visibility: greater than 7 mile(s):0
Temperature: 69 F (21 C)
Dew Point: 51 F (11 C)
Relative Humidity: 52%
Pressure (altimeter): 30.06 in. Hg (1018 hPa)
ob: LGTS 200050Z 14006KT CAVOK 21/11 Q1018 NOSIG
cycle: 1

Station Type Date Time Source
LGTS TAF 2020/09/19 18:12 UTC NOAA

TAF LGTS 191700Z 1918/2018 20012KT 9999 FEW030
BECMG 1920/1922 11010KT SCT030
BECMG 2010/2012 17012KT FEW030

Example: see airport list